Latest Weather Observations for Hamilton

IDV60801

Issued at 8:31 am EST Sunday 1 May 2016 (issued every 30 minutes, with the page automatically refreshed every 10 minutes)

About weather observations | Map of weather stations | Latest weather observations for VIC | Other Formats
Station Details ID: 090173 Name: HAMILTON AIRPORT Lat: -37.65 Lon: 142.06 Height: 241.1 m
Data from the previous 72 hours. | See also: Recent months at Hamilton
Date/Time
EST
Temp
°C
App
Temp
°C
Dew
Point
Rel
Hum
%
Delta-T
°C
Wind Press
QNH
hPa
Press
MSL
hPa
Rain
since 9 am
mm
Dir
 
Spd
km/h
Gust
km/h
Spd
kts
Gust
kts
01/08:30am 9.0 3.5 7.6 91 0.7 W 26 39 14 21 1008.8 1008.6 15.0
01/08:29am 9.0 3.5 7.5 90 0.7 WNW 26 39 14 21 1008.7 1008.5 15.0
01/08:27am 9.0 3.5 7.5 90 0.7 WNW 26 37 14 20 1008.7 1008.5 14.8
01/08:00am 8.9 2.0 7.2 89 0.8 WNW 33 46 18 25 1008.0 1007.7 14.4
01/07:30am 9.8 3.0 7.9 88 0.9 WNW 33 48 18 26 1006.8 1006.5 13.8
01/07:25am 9.9 3.4 8.0 88 0.9 WNW 32 48 17 26 1006.7 1006.4 13.6
01/07:00am 10.1 4.7 8.2 88 0.9 NW 26 33 14 18 1006.1 1005.9 13.2
01/06:30am 10.2 5.3 8.5 89 0.8 WNW 24 35 13 19 1005.7 1005.5 13.2
01/06:00am 10.1 4.8 8.5 90 0.8 WNW 26 32 14 17 1005.2 1005.0 13.2
01/05:30am 9.8 3.7 8.2 90 0.8 WNW 30 41 16 22 1004.6 1004.3 13.2
01/05:29am 9.8 3.7 8.2 90 0.8 WNW 30 44 16 24 1004.6 1004.3 13.2
01/05:23am 9.9 3.4 8.2 89 0.8 W 32 44 17 24 1004.6 1004.3 13.2
01/05:18am 10.0 2.9 7.9 87 1.0 W 35 54 19 29 1004.2 1003.9 13.2
01/05:07am 10.2 3.2 8.5 89 0.8 WNW 35 54 19 29 1004.1 1003.8 12.4
01/05:02am 10.8 5.6 8.9 88 1.0 NW 26 44 14 24 1004.0 1003.7 12.0
01/05:00am 11.0 6.2 8.8 86 1.1 NW 24 32 13 17 1004.0 1003.7 11.8
01/04:30am 11.6 5.4 7.9 78 1.8 NW 30 43 16 23 1003.5 1003.2 11.0
01/04:07am 11.8 5.2 7.7 76 2.0 NW 32 52 17 28 1003.2 1002.9 11.0
01/04:00am 11.7 5.4 7.6 76 2.0 NW 30 39 16 21 1003.1 1002.8 11.0
01/03:30am 12.6 5.3 7.3 70 2.6 WNW 35 48 19 26 1002.9 1002.6 11.0
01/03:14am 12.5 5.0 7.8 73 2.3 WNW 37 56 20 30 1002.8 1002.5 11.0
01/03:00am 13.1 5.3 8.2 72 2.5 WNW 39 54 21 29 1002.5 1002.2 11.0
01/02:40am 14.1 5.6 8.7 70 2.8 NW 43 61 23 33 1002.4 1002.1 11.0
01/02:30am 14.1 8.0 9.7 75 2.3 NW 32 43 17 23 1002.0 1001.8 11.0
01/02:00am 13.8 8.7 10.6 81 1.7 NNW 28 33 15 18 1002.7 1002.4 11.0
01/01:30am 14.3 8.4 11.1 81 1.7 NW 33 41 18 22 1003.4 1003.1 11.0
01/01:00am 14.8 9.2 11.6 81 1.7 NNW 32 44 17 24 1003.8 1003.5 10.8
01/12:30am 14.7 9.5 12.7 88 1.1 NNW 32 41 17 22 1003.3 1003.0 10.8
01/12:00am 14.4 8.6 12.8 90 0.9 NNW 35 48 19 26 1003.2 1002.9 10.8
 
Date/Time
EST
Temp
°C
App
Temp
°C
Dew
Point
Rel
Hum
%
Delta-T
°C
Wind Press
QNH
hPa
Press
MSL
hPa
Rain
since 9 am
mm
Dir
 
Spd
km/h
Gust
km/h
Spd
kts
Gust
kts
30/11:57pm 14.3 8.5 12.7 90 0.9 NNW 35 48 19 26 1003.3 1003.0 10.8
30/11:42pm 13.5 7.4 11.9 90 0.9 NNW 35 61 19 33 1004.2 1003.9 10.6
30/11:38pm 13.5 6.7 12.1 91 0.8 NW 39 80 21 43 1004.4 1004.1 10.0
30/11:33pm 13.3 6.4 11.5 89 1.0 WNW 39 80 21 43 1004.9 1004.7 7.6
30/11:31pm 13.2 6.3 10.4 83 1.5 WNW 37 80 20 43 1005.1 1004.9 3.0
30/11:30pm 14.7 8.7 12.0 84 1.5 WNW 35 80 19 43 1004.7 1004.5 1.6
30/11:29pm 15.9 10.6 12.5 80 1.9 WNW 32 80 17 43 1004.6 1004.3 0.6
30/11:00pm 18.9 13.3 11.5 62 4.1 N 32 46 17 25 1003.0 1002.7 0.0
30/10:30pm 18.7 13.2 10.5 59 4.5 N 30 39 16 21 1003.9 1003.6 0.0
30/10:00pm 18.4 13.1 10.0 58 4.5 N 28 35 15 19 1004.6 1004.3 0.0
30/09:30pm 17.7 13.8 9.3 58 4.4 N 20 28 11 15 1005.4 1005.2 0.0
30/09:00pm 17.2 13.2 9.1 59 4.3 N 20 26 11 14 1005.8 1005.6 0.0
30/08:30pm 16.2 12.7 8.9 62 3.8 N 17 20 9 11 1006.4 1006.2 0.0
30/08:00pm 16.2 12.7 8.7 61 3.9 N 17 19 9 10 1007.1 1006.8 0.0
30/07:30pm 16.6 13.4 8.6 59 4.1 N 15 17 8 9 1007.1 1006.8 0.0
30/07:00pm 17.0 13.9 8.7 58 4.3 N 15 17 8 9 1007.3 1007.0 0.0
30/06:30pm 16.9 13.7 8.6 58 4.3 N 15 19 8 10 1007.4 1007.1 0.0
30/06:00pm 18.3 14.3 8.3 52 5.2 NNW 19 24 10 13 1007.2 1006.9 0.0
30/05:30pm 19.6 15.4 8.3 48 5.9 NNW 20 28 11 15 1007.5 1007.2 0.0
30/05:00pm 21.1 16.0 7.7 42 7.0 NNW 24 32 13 17 1007.8 1007.5 0.0
30/04:30pm 21.7 15.4 7.5 40 7.4 NNW 30 39 16 21 1008.2 1008.0 0.0
30/04:00pm 21.9 14.8 6.6 37 7.9 NNW 33 43 18 23 1008.4 1008.2 0.0
30/03:30pm 21.9 14.0 6.2 36 8.0 NNW 37 46 20 25 1008.5 1008.3 0.0
30/03:00pm 21.9 14.0 6.2 36 8.0 NNW 37 50 20 27 1008.6 1008.4 0.0
30/02:30pm 21.7 14.1 5.6 35 8.1 NNW 35 57 19 31 1009.0 1008.8 0.0
30/02:00pm 21.9 14.0 7.7 40 7.5 NNW 39 54 21 29 1009.5 1009.3 0.0
30/01:53pm 21.8 14.5 7.2 39 7.6 NNW 35 54 19 29 1009.6 1009.4 0.0
30/01:30pm 21.4 13.5 8.0 42 7.1 NW 39 56 21 30 1009.9 1009.7 0.0
30/01:21pm 21.6 14.4 7.8 41 7.3 NW 35 56 19 30 1010.1 1009.9 0.0
30/01:00pm 21.4 14.8 8.7 44 6.8 NW 33 43 18 23 1010.5 1010.3 0.0
30/12:36pm 21.0 14.0 8.6 45 6.6 NW 35 54 19 29 1011.0 1010.7 0.0
30/12:30pm 20.7 13.2 8.0 44 6.7 NW 37 54 20 29 1011.1 1010.8 0.0
30/12:00pm 20.5 13.8 9.7 50 5.9 NW 35 48 19 26 1011.5 1011.2 0.0
30/11:30am 20.0 12.7 8.7 48 6.0 NW 37 48 20 26 1011.8 1011.6 0.0
30/11:00am 19.6 14.2 9.5 52 5.4 NNW 28 37 15 20 1011.9 1011.7 0.0
30/10:30am 18.7 12.8 10.3 58 4.6 NW 32 44 17 24 1011.9 1011.7 0.0
30/10:00am 17.9 12.1 12.6 71 3.0 NNW 35 44 19 24 1012.2 1012.0 0.0
30/09:30am 16.9 13.6 14.0 83 1.7 NNW 24 32 13 17 1012.5 1012.3 0.0
30/09:00am 16.1 12.4 13.8 86 1.3 N 26 33 14 18 1012.7 1012.5 13.4
30/08:54am 15.9 12.1 13.7 87 1.3 N 26 32 14 17 1012.7 1012.5 13.4
30/08:30am 15.7 12.0 13.9 89 1.0 N 26 35 14 19 1012.9 1012.7 13.4
30/08:08am 15.0 11.6 13.7 92 0.7 N 24 30 13 16 1012.7 1012.5 13.4
30/08:00am 15.1 12.1 13.8 92 0.7 N 22 28 12 15 1012.8 1012.6 13.4
30/07:30am 15.0 12.0 13.7 92 0.7 N 22 28 12 15 1012.3 1012.1 13.4
30/07:24am 14.9 11.9 13.8 93 0.6 N 22 28 12 15 1012.4 1012.2 13.4
30/07:00am 14.8 12.2 13.7 93 0.6 N 20 24 11 13 1012.2 1012.0 13.4
30/06:30am 14.9 12.3 13.8 93 0.6 N 20 26 11 14 1012.3 1012.1 13.4
30/06:00am 14.5 12.0 13.5 94 0.6 N 19 24 10 13 1012.1 1011.9 13.4
30/05:30am 14.6 11.9 13.6 94 0.6 N 20 28 11 15 1012.0 1011.8 13.4
30/05:00am 14.1 11.0 13.3 95 0.4 N 22 28 12 15 1011.9 1011.7 13.4
30/04:30am 14.1 11.3 13.1 94 0.6 N 20 26 11 14 1011.8 1011.6 13.4
30/04:00am 14.2 11.0 13.1 93 0.6 NNW 22 28 12 15 1011.9 1011.7 13.4
30/03:37am 14.5 10.6 13.4 93 0.6 N 26 33 14 18 1011.9 1011.7 13.4
30/03:30am 14.6 10.8 13.5 93 0.6 N 26 35 14 19 1011.8 1011.6 13.4
30/03:00am 14.9 10.8 13.8 93 0.6 NNW 28 35 15 19 1011.9 1011.7 13.4
30/02:30am 15.1 11.8 14.0 93 0.6 N 24 32 13 17 1012.1 1011.9 13.4
30/02:00am 14.4 11.3 13.4 94 0.6 N 22 28 12 15 1012.2 1012.0 13.4
30/01:41am 14.1 10.9 13.1 94 0.6 N 22 28 12 15 1012.3 1012.1 13.4
30/01:30am 13.8 10.9 12.9 94 0.5 N 20 24 11 13 1012.3 1012.1 13.4
30/01:00am 13.8 11.4 12.7 93 0.6 N 17 20 9 11 1012.5 1012.3 13.2
30/12:30am 14.0 11.0 12.6 91 0.8 N 20 24 11 13 1012.6 1012.4 13.2
30/12:00am 14.2 10.8 12.4 89 1.0 N 22 30 12 16 1012.6 1012.4 13.2
 
Date/Time
EST
Temp
°C
App
Temp
°C
Dew
Point
Rel
Hum
%
Delta-T
°C
Wind Press
QNH
hPa
Press
MSL
hPa
Rain
since 9 am
mm
Dir
 
Spd
km/h
Gust
km/h
Spd
kts
Gust
kts
29/11:30pm 14.3 11.3 12.7 90 0.9 N 20 26 11 14 1012.9 1012.7 13.2
29/11:00pm 14.2 11.5 12.8 91 0.8 N 19 22 10 12 1013.2 1013.0 13.2
29/10:30pm 14.2 11.5 12.8 91 0.8 N 19 24 10 13 1013.5 1013.3 13.2
29/10:00pm 14.1 11.4 13.0 93 0.6 N 19 22 10 12 1013.5 1013.3 13.2
29/09:30pm 13.6 11.2 12.7 94 0.5 N 17 20 9 11 1013.6 1013.4 13.2
29/09:00pm 13.1 11.3 12.0 93 0.6 N 13 15 7 8 1013.4 1013.2 13.2
29/08:30pm 13.0 11.5 11.9 93 0.6 N 11 13 6 7 1013.2 1013.0 13.2
29/08:00pm 13.2 11.4 12.1 93 0.6 N 13 15 7 8 1013.3 1013.1 13.2
29/07:30pm 13.1 11.6 11.8 92 0.7 N 11 15 6 8 1013.3 1013.1 13.2
29/07:00pm 13.2 11.6 11.6 90 0.9 NNW 11 13 6 7 1013.2 1013.0 13.2
29/06:30pm 14.2 12.8 12.2 88 1.1 NW 11 13 6 7 1013.1 1012.9 13.2
29/06:00pm 14.6 12.7 13.0 90 0.9 NW 15 22 8 12 1012.6 1012.4 13.2
29/05:30pm 15.0 13.8 13.9 93 0.6 NNW 13 17 7 9 1012.3 1012.1 13.2
29/05:04pm 14.8 12.7 13.7 93 0.6 WNW 17 19 9 10 1012.3 1012.1 13.2
29/05:00pm 14.7 12.2 13.6 93 0.6 NW 19 30 10 16 1012.3 1012.1 13.2
29/04:54pm 14.5 11.8 13.4 93 0.6 NNW 20 30 11 16 1012.1 1011.9 13.0
29/04:30pm 15.0 13.8 14.0 94 0.6 NW 13 19 7 10 1012.2 1012.0 9.0
29/04:12pm 15.2 13.7 14.1 93 0.6 NNW 15 20 8 11 1012.1 1011.9 4.4
29/04:02pm 15.2 13.3 14.1 93 0.6 NNW 17 20 9 11 1012.0 1011.8 3.8
29/04:00pm 15.2 13.3 14.1 93 0.6 NNW 17 20 9 11 1011.9 1011.7 3.8
29/03:54pm 15.2 12.7 14.1 93 0.6 NNW 20 28 11 15 1012.0 1011.8 3.8
29/03:52pm 15.2 12.7 14.1 93 0.6 NNW 20 28 11 15 1011.9 1011.7 3.8
29/03:46pm 15.2 11.9 13.9 92 0.7 NNW 24 30 13 16 1012.0 1011.8 3.4
29/03:30pm 15.4 11.7 13.9 91 0.9 N 26 33 14 18 1011.8 1011.6 2.2
29/03:04pm 15.3 11.9 13.7 90 0.9 NNW 24 37 13 20 1011.7 1011.4 1.8
29/03:00pm 15.4 12.0 13.8 90 0.9 NNW 24 30 13 16 1011.6 1011.3 1.8
29/02:47pm 15.3 10.7 13.5 89 1.0 NNW 30 37 16 20 1011.6 1011.3 1.8
29/02:30pm 15.7 10.8 13.7 88 1.1 NNW 32 43 17 23 1011.5 1011.2 1.8
29/02:00pm 15.1 11.4 13.8 92 0.7 NNW 26 33 14 18 1011.5 1011.2 1.8
29/01:30pm 15.1 11.0 13.8 92 0.7 NNW 28 37 15 20 1011.6 1011.3 1.4
29/01:00pm 15.2 11.1 13.7 91 0.9 N 28 37 15 20 1011.8 1011.6 1.2
29/12:30pm 15.1 10.9 13.5 90 0.9 NNW 28 32 15 17 1012.2 1012.0 1.2
29/12:21pm 15.2 10.6 13.6 90 0.9 NNW 30 37 16 20 1012.3 1012.1 1.2
29/12:00pm 15.2 10.3 13.6 90 0.9 NNW 32 41 17 22 1012.6 1012.4 1.0
29/11:30am 15.4 10.2 13.4 88 1.1 NNW 33 43 18 23 1012.7 1012.5 0.8
29/11:00am 15.3 11.1 13.5 89 1.0 N 28 37 15 20 1012.9 1012.7 0.8
29/10:30am 14.9 10.6 13.3 90 0.9 N 28 37 15 20 1013.0 1012.8 0.6
29/10:00am 14.8 10.5 13.2 90 0.9 NNW 28 37 15 20 1013.5 1013.3 0.6
29/09:30am 14.8 10.0 12.8 88 1.1 NNW 30 39 16 21 1013.7 1013.5 0.4
29/09:00am 15.0 10.8 12.5 85 1.4 NNW 26 33 14 18 1013.8 1013.6 2.6
29/08:30am 15.4 10.8 12.2 81 1.8 NNW 28 35 15 19 1013.5 1013.3 2.4
29/08:00am 16.0 11.9 11.6 75 2.4 NNW 24 33 13 18 1013.3 1013.1 2.4
29/07:30am 16.2 12.3 10.9 71 2.9 NNW 22 28 12 15 1013.1 1012.9 2.4
29/07:00am 16.4 12.1 10.7 69 3.1 NW 24 32 13 17 1013.1 1012.9 2.4
29/06:30am 16.8 11.6 10.2 65 3.5 NW 28 35 15 19 1013.7 1013.5 2.4
29/06:00am 16.2 12.5 10.1 67 3.2 NNW 20 30 11 16 1013.8 1013.6 2.4
29/05:30am 16.7 11.5 10.1 65 3.5 NNW 28 35 15 19 1014.1 1013.9 2.4
29/05:00am 16.4 12.9 10.3 67 3.3 NW 19 26 10 14 1013.4 1013.2 2.2
29/04:30am 18.0 14.0 9.1 56 4.7 N 20 30 11 16 1012.2 1012.0 2.0
29/04:00am 18.2 12.6 8.7 54 5.0 N 28 39 15 21 1012.0 1011.8 2.0
29/03:30am 17.5 11.8 9.7 60 4.2 N 30 39 16 21 1012.3 1012.1 2.0
29/03:00am 17.3 10.8 10.2 63 3.8 N 35 41 19 22 1012.9 1012.7 2.0
29/02:30am 17.7 11.8 10.6 63 3.8 NNE 32 44 17 24 1013.0 1012.8 2.0
29/02:00am 16.6 13.3 11.5 72 2.8 N 20 24 11 13 1013.8 1013.6 1.6
29/01:30am 16.1 13.8 11.9 76 2.3 N 15 17 8 9 1014.7 1014.5 1.6
29/01:00am 16.1 14.6 11.9 76 2.3 N 11 15 6 8 1014.6 1014.4 1.6
29/12:30am 17.1 13.9 11.4 69 3.1 N 19 24 10 13 1014.8 1014.6 1.2
29/12:00am 16.9 13.2 11.6 71 2.9 NNE 22 26 12 14 1014.7 1014.5 1.2
 
Date/Time
EST
Temp
°C
App
Temp
°C
Dew
Point
Rel
Hum
%
Delta-T
°C
Wind Press
QNH
hPa
Press
MSL
hPa
Rain
since 9 am
mm
Dir
 
Spd
km/h
Gust
km/h
Spd
kts
Gust
kts
28/11:30pm 15.6 13.7 12.9 84 1.5 NE 15 19 8 10 1015.4 1015.2 1.0
28/11:00pm 14.5 14.4 12.2 86 1.3 WNW 4 9 2 5 1015.5 1015.3 1.0
28/10:30pm 15.7 16.5 12.5 81 1.8 CALM 0 0 0 0 1015.6 1015.4 1.0
28/10:00pm 16.5 15.5 12.3 76 2.3 WNW 9 15 5 8 1016.2 1016.0 1.0
28/09:30pm 16.7 13.9 12.5 76 2.3 WNW 19 28 10 15 1016.5 1016.3 1.0
28/09:00pm 16.9 12.6 12.2 74 2.6 N 26 33 14 18 1015.4 1015.2 1.0
28/08:30pm 16.6 14.1 12.4 76 2.3 N 17 20 9 11 1016.2 1016.0 0.8
28/08:00pm 15.8 13.4 12.5 81 1.8 N 17 20 9 11 1015.9 1015.7 0.8
28/07:30pm 16.3 14.2 12.5 78 2.1 NNE 15 19 8 10 1015.9 1015.7 0.8
28/07:00pm 16.6 13.7 12.8 78 2.1 NNE 20 26 11 14 1016.0 1015.8 0.8
28/06:30pm 15.8 14.7 14.2 90 0.9 ENE 13 17 7 9 1016.0 1015.8 0.8
28/06:00pm 15.6 15.2 14.1 91 0.9 NNE 9 11 5 6 1016.5 1016.3 0.6
28/05:30pm 15.9 17.1 13.9 88 1.1 CALM 0 0 0 0 1016.3 1016.1 0.6
28/05:00pm 16.2 16.3 14.4 89 1.0 SW 7 11 4 6 1016.3 1016.1 0.4
28/04:30pm 17.1 16.9 14.6 85 1.5 NW 9 13 5 7 1016.7 1016.5 0.4
28/04:00pm 16.7 18.0 14.0 84 1.5 CALM 0 0 0 0 1016.7 1016.5 0.4
28/03:30pm 16.8 16.9 13.9 83 1.7 SW 6 9 3 5 1017.0 1016.8 0.2
28/03:00pm 18.3 16.8 13.0 71 3.0 NW 13 19 7 10 1017.1 1016.9 0.0
28/02:30pm 19.1 16.6 12.4 65 3.8 N 17 20 9 11 1016.7 1016.5 0.0
28/02:00pm 19.5 17.8 12.5 64 4.0 NW 13 17 7 9 1016.9 1016.7 0.0
28/01:30pm 19.4 17.5 11.9 62 4.2 NNW 13 19 7 10 1017.1 1016.9 0.0
28/01:00pm 20.0 18.7 12.5 62 4.3 WNW 11 13 6 7 1017.3 1017.1 0.0
28/12:30pm 19.1 18.5 12.4 65 3.8 NNW 7 11 4 6 1017.3 1017.1 0.0
28/12:00pm 18.3 17.9 12.5 69 3.3 WNW 6 9 3 5 1017.6 1017.4 0.0
28/11:30am 17.6 17.0 12.3 71 3.0 WNW 7 9 4 5 1017.8 1017.6 0.0
28/11:00am 17.3 16.3 12.4 73 2.7 WNW 9 13 5 7 1018.2 1018.0 0.0
28/10:30am 17.1 15.8 12.4 74 2.6 W 11 13 6 7 1018.4 1018.2 0.0
28/10:00am 16.8 15.1 12.5 76 2.4 W 13 17 7 9 1018.5 1018.3 0.0
28/09:30am 16.9 15.4 12.0 73 2.7 W 11 13 6 7 1018.2 1018.0 0.0
28/09:00am 16.9 14.9 10.3 65 3.5 W 11 13 6 7 1018.0 1017.8 0.0

Other Formats:

Comma delimited format used in spreadsheet applications
http://www.bom.gov.au/fwo/IDV60801/IDV60801.94829.axf

JavaScript Object Notation format (JSON) in row-major order
http://www.bom.gov.au/fwo/IDV60801/IDV60801.94829.json